createdAt,value
2023-02-16T00:00:20.624Z,100832.48
2023-02-16T00:02:49.428Z,100828.35
2023-02-16T00:05:34.862Z,100832.02
2023-02-16T00:08:03.290Z,100830.15
2023-02-16T00:10:34.349Z,100829.06
2023-02-16T00:13:21.344Z,100832.18
2023-02-16T00:15:49.497Z,100828.95
2023-02-16T00:18:19.474Z,100837.48
2023-02-16T00:20:48.475Z,100834.45
2023-02-16T00:23:16.712Z,100833.99
2023-02-16T00:25:46.386Z,100834.77
2023-02-16T00:28:17.782Z,100834.69
2023-02-16T00:30:46.985Z,100834.52
2023-02-16T00:33:20.490Z,100830.14
2023-02-16T00:35:49.169Z,100829.08
2023-02-16T00:38:17.696Z,100831.76
2023-02-16T00:40:46.024Z,100835.61
2023-02-16T00:43:32.396Z,100836.06
2023-02-16T00:46:00.445Z,100838.14
2023-02-16T00:48:28.713Z,100832.89
2023-02-16T00:50:57.097Z,100827.41
2023-02-16T00:53:25.358Z,100825.09
2023-02-16T00:55:54.038Z,100826.80
2023-02-16T00:58:26.863Z,100825.02
2023-02-16T01:01:00.929Z,100819.46
2023-02-16T01:03:29.816Z,100811.50
2023-02-16T01:06:17.478Z,100812.20
2023-02-16T01:09:04.804Z,100805.71
2023-02-16T01:11:34.715Z,100807.75
2023-02-16T01:14:06.525Z,100811.29
2023-02-16T01:16:39.733Z,100808.77
2023-02-16T01:19:07.729Z,100799.75
2023-02-16T01:21:36.067Z,100802.09
2023-02-16T01:24:04.231Z,100805.79
2023-02-16T01:26:35.218Z,100805.96
2023-02-16T01:29:04.112Z,100802.02
2023-02-16T01:31:34.834Z,100801.90
2023-02-16T01:34:04.633Z,100804.76
2023-02-16T01:36:44.793Z,100800.81
2023-02-16T01:39:14.656Z,100799.91
2023-02-16T01:41:51.920Z,100797.84
2023-02-16T01:44:29.465Z,100796.94
2023-02-16T01:47:17.627Z,100799.38
2023-02-16T01:49:45.973Z,100800.61
2023-02-16T01:52:34.473Z,100801.66
2023-02-16T01:55:25.143Z,100799.52
2023-02-16T01:58:04.856Z,100804.20
2023-02-16T02:00:51.728Z,100806.24
2023-02-16T02:03:40.862Z,100802.48
2023-02-16T02:06:10.452Z,100801.29
2023-02-16T02:09:00.428Z,100798.58
2023-02-16T02:11:50.345Z,100801.70
2023-02-16T02:14:28.183Z,100805.18
2023-02-16T02:17:06.338Z,100804.48
2023-02-16T02:20:07.214Z,100803.41
2023-02-16T02:23:06.948Z,100803.00
2023-02-16T02:25:52.033Z,100805.06
2023-02-16T02:28:38.541Z,100814.50
2023-02-16T02:31:12.888Z,100813.00
2023-02-16T02:33:41.325Z,100813.09
2023-02-16T02:36:27.850Z,100815.34
2023-02-16T02:39:15.165Z,100811.05
2023-02-16T02:42:10.917Z,100809.73
2023-02-16T02:45:01.844Z,100805.99
2023-02-16T02:47:38.985Z,100809.58
2023-02-16T02:50:34.275Z,100805.55
2023-02-16T02:53:06.870Z,100804.50
2023-02-16T02:55:54.659Z,100802.77
2023-02-16T02:58:42.046Z,100806.57
2023-02-16T03:01:10.654Z,100802.33
2023-02-16T03:03:51.156Z,100804.27
2023-02-16T03:06:27.645Z,100807.51
2023-02-16T03:09:02.761Z,100800.40
2023-02-16T03:11:49.816Z,100804.02
2023-02-16T03:14:33.614Z,100803.73
2023-02-16T03:17:25.758Z,100795.70
2023-02-16T03:20:13.982Z,100791.17
2023-02-16T03:23:03.287Z,100791.95
2023-02-16T03:25:54.567Z,100788.13
2023-02-16T03:28:45.506Z,100783.66
2023-02-16T03:31:27.076Z,100778.66
2023-02-16T03:33:58.118Z,100779.08
2023-02-16T03:36:30.707Z,100777.92
2023-02-16T03:39:07.029Z,100777.36
2023-02-16T03:41:43.285Z,100775.80
2023-02-16T03:44:13.427Z,100777.06
2023-02-16T03:46:45.311Z,100777.60
2023-02-16T03:49:17.987Z,100772.30
2023-02-16T03:51:53.060Z,100775.71
2023-02-16T03:54:25.240Z,100775.88
2023-02-16T03:56:58.547Z,100772.81
2023-02-16T03:59:31.379Z,100774.31
2023-02-16T04:02:03.715Z,100773.81
2023-02-16T04:04:35.652Z,100762.52
2023-02-16T04:07:07.270Z,100758.95
2023-02-16T04:09:36.334Z,100756.64
2023-02-16T04:12:27.686Z,100755.99
2023-02-16T04:14:55.945Z,100758.00
2023-02-16T04:17:24.578Z,100756.54
2023-02-16T04:19:52.552Z,100753.61
2023-02-16T04:22:21.400Z,100755.05
2023-02-16T04:24:49.330Z,100749.66
2023-02-16T04:27:17.244Z,100747.31
2023-02-16T04:29:45.854Z,100746.52
2023-02-16T04:32:13.802Z,100744.90
2023-02-16T04:34:42.118Z,100745.23
2023-02-16T04:37:10.833Z,100743.27
2023-02-16T04:39:38.831Z,100741.67
2023-02-16T04:42:06.965Z,100737.69
2023-02-16T04:44:39.713Z,100733.45
2023-02-16T04:47:07.732Z,100732.06
2023-02-16T04:49:35.649Z,100735.55
2023-02-16T04:52:04.330Z,100737.00
2023-02-16T04:54:33.220Z,100734.77
2023-02-16T04:57:01.452Z,100730.66
2023-02-16T04:59:30.688Z,100730.86
2023-02-16T05:01:58.802Z,100731.19
2023-02-16T05:04:26.814Z,100734.54
2023-02-16T05:06:55.087Z,100728.55
2023-02-16T05:09:23.123Z,100733.55
2023-02-16T05:12:10.169Z,100727.45
2023-02-16T05:14:46.948Z,100725.92
2023-02-16T05:17:22.675Z,100724.67
2023-02-16T05:19:57.527Z,100730.69
2023-02-16T05:22:25.585Z,100732.65
2023-02-16T05:24:53.540Z,100733.14
2023-02-16T05:27:26.945Z,100735.35
2023-02-16T05:29:55.165Z,100731.19
2023-02-16T05:32:23.222Z,100731.95
2023-02-16T05:34:51.952Z,100729.30
2023-02-16T05:37:20.023Z,100728.04
2023-02-16T05:39:48.171Z,100727.40
2023-02-16T05:42:17.062Z,100728.45
2023-02-16T05:44:44.982Z,100729.81
2023-02-16T05:47:13.097Z,100730.96
2023-02-16T05:49:41.134Z,100731.75
2023-02-16T05:52:09.293Z,100731.53
2023-02-16T05:54:37.481Z,100731.25
2023-02-16T05:57:07.118Z,100735.37
2023-02-16T05:59:35.112Z,100732.94
2023-02-16T06:02:02.997Z,100726.59
2023-02-16T06:04:32.615Z,100728.27
2023-02-16T06:07:00.633Z,100725.40
2023-02-16T06:09:28.613Z,100727.92
2023-02-16T06:11:58.190Z,100729.92
2023-02-16T06:14:26.132Z,100731.19
2023-02-16T06:16:57.543Z,100728.13
2023-02-16T06:19:25.845Z,100725.16
2023-02-16T06:21:53.989Z,100726.27
2023-02-16T06:24:21.878Z,100725.56
2023-02-16T06:26:50.525Z,100724.41
2023-02-16T06:29:18.616Z,100725.48
2023-02-16T06:31:46.677Z,100728.45
2023-02-16T06:34:15.055Z,100726.39
2023-02-16T06:36:43.355Z,100726.45
2023-02-16T06:39:11.446Z,100719.20
2023-02-16T06:41:42.946Z,100715.67
2023-02-16T06:44:15.313Z,100714.17
2023-02-16T06:46:45.922Z,100715.02
2023-02-16T06:49:15.966Z,100713.32
2023-02-16T06:51:43.954Z,100714.95
2023-02-16T06:54:12.346Z,100716.20
2023-02-16T06:56:40.532Z,100713.72
2023-02-16T06:59:10.091Z,100712.92
2023-02-16T07:01:38.272Z,100709.54
2023-02-16T07:04:06.295Z,100707.67
2023-02-16T07:06:34.607Z,100706.95
2023-02-16T07:09:02.899Z,100702.16
2023-02-16T07:11:31.870Z,100697.70
2023-02-16T07:14:06.040Z,100699.83
2023-02-16T07:16:34.535Z,100691.68
2023-02-16T07:19:02.570Z,100693.67
2023-02-16T07:21:31.187Z,100695.40
2023-02-16T07:24:01.857Z,100694.43
2023-02-16T07:26:41.506Z,100697.05
2023-02-16T07:29:22.013Z,100696.39
2023-02-16T07:31:56.457Z,100692.20
2023-02-16T07:34:27.170Z,100689.31
2023-02-16T07:36:58.564Z,100686.33
2023-02-16T07:39:29.412Z,100683.90
2023-02-16T07:41:58.018Z,100677.97
2023-02-16T07:44:27.665Z,100675.59
2023-02-16T07:46:57.403Z,100670.91
2023-02-16T07:49:27.058Z,100671.34
2023-02-16T07:51:59.164Z,100672.36
2023-02-16T07:54:29.803Z,100668.70
2023-02-16T07:57:04.518Z,100670.17
2023-02-16T07:59:40.455Z,100670.66
2023-02-16T08:02:19.318Z,100670.40
2023-02-16T08:04:48.572Z,100667.55
2023-02-16T08:07:17.319Z,100663.98
2023-02-16T08:09:45.285Z,100664.20
2023-02-16T08:12:13.860Z,100661.73
2023-02-16T08:14:42.644Z,100661.80
2023-02-16T08:17:11.653Z,100658.76
2023-02-16T08:19:40.337Z,100660.64
2023-02-16T08:22:08.791Z,100656.31
2023-02-16T08:24:37.783Z,100655.54
2023-02-16T08:27:05.899Z,100652.79
2023-02-16T08:29:35.997Z,100648.55
2023-02-16T08:32:07.662Z,100648.15
2023-02-16T08:34:36.322Z,100649.58
2023-02-16T08:37:04.694Z,100649.38
2023-02-16T08:39:33.082Z,100647.41
2023-02-16T08:42:01.404Z,100647.62
2023-02-16T08:44:30.272Z,100645.88
2023-02-16T08:47:00.377Z,100649.94
2023-02-16T08:49:28.580Z,100648.90
2023-02-16T08:51:58.048Z,100649.04
2023-02-16T08:54:30.720Z,100650.23
2023-02-16T08:56:59.875Z,100649.55
2023-02-16T08:59:28.894Z,100650.41
2023-02-16T09:01:58.201Z,100651.61
2023-02-16T09:04:29.024Z,100644.05
2023-02-16T09:06:58.796Z,100645.82
2023-02-16T09:09:27.747Z,100636.19
2023-02-16T09:11:58.551Z,100634.86
2023-02-16T09:14:27.986Z,100635.34
2023-02-16T09:16:58.165Z,100625.28
2023-02-16T09:19:28.445Z,100625.84
2023-02-16T09:21:57.224Z,100623.61
2023-02-16T09:24:27.326Z,100621.80
2023-02-16T09:27:13.045Z,100616.70
2023-02-16T09:29:44.149Z,100618.39
2023-02-16T09:32:12.203Z,100614.35
2023-02-16T09:34:40.511Z,100619.77
2023-02-16T09:37:09.032Z,100616.09
2023-02-16T09:39:37.160Z,100611.84
2023-02-16T09:42:24.462Z,100611.07
2023-02-16T09:45:02.706Z,100609.96
2023-02-16T09:47:33.812Z,100607.75
2023-02-16T09:50:13.263Z,100601.16
2023-02-16T09:53:22.578Z,100596.98
2023-02-16T09:56:06.245Z,100598.48
2023-02-16T09:58:57.093Z,100596.95
2023-02-16T10:01:46.446Z,100599.04
2023-02-16T10:04:35.434Z,100598.14
2023-02-16T10:07:26.212Z,100593.12
2023-02-16T10:09:55.265Z,100590.30
2023-02-16T10:12:26.560Z,100582.09
2023-02-16T10:15:02.406Z,100583.18
2023-02-16T10:17:34.425Z,100577.26
2023-02-16T10:20:33.342Z,100574.98
2023-02-16T10:23:40.198Z,100574.02
2023-02-16T10:27:08.404Z,100568.76
2023-02-16T10:30:17.386Z,100563.05
2023-02-16T10:32:55.180Z,100559.20
2023-02-16T10:35:29.791Z,100556.20
2023-02-16T10:38:09.212Z,100553.18
2023-02-16T10:41:05.544Z,100550.70
2023-02-16T10:43:51.587Z,100544.88
2023-02-16T10:46:25.554Z,100540.05
2023-02-16T10:49:49.519Z,100545.58
2023-02-16T10:52:18.141Z,100538.86
2023-02-16T10:54:47.521Z,100534.07
2023-02-16T10:57:25.525Z,100527.83
2023-02-16T10:59:55.627Z,100526.83
2023-02-16T11:02:53.507Z,100523.85
2023-02-16T11:05:38.575Z,100519.20
2023-02-16T11:08:11.321Z,100518.65
2023-02-16T11:10:50.549Z,100520.48
2023-02-16T11:13:31.555Z,100514.41
2023-02-16T11:16:14.144Z,100510.36
2023-02-16T11:18:56.572Z,100503.33
2023-02-16T11:21:50.572Z,100503.38
2023-02-16T11:24:33.807Z,100497.75
2023-02-16T11:27:24.017Z,100490.40
2023-02-16T11:30:22.693Z,100483.94
2023-02-16T11:32:54.603Z,100478.50
2023-02-16T11:35:25.691Z,100476.55
2023-02-16T11:37:56.779Z,100475.77
2023-02-16T11:40:31.628Z,100471.27
2023-02-16T11:43:03.592Z,100468.70
2023-02-16T11:45:37.843Z,100464.20
2023-02-16T11:48:12.892Z,100455.70
2023-02-16T11:51:15.953Z,100454.45
2023-02-16T11:53:47.610Z,100449.35
2023-02-16T11:56:27.702Z,100440.33
2023-02-16T12:10:22.453Z,100420.67
2023-02-16T12:13:16.112Z,100414.20
2023-02-16T12:15:47.030Z,100403.89
2023-02-16T12:18:28.271Z,100402.94
2023-02-16T12:21:17.123Z,100402.66
2023-02-16T12:24:13.903Z,100395.95
2023-02-16T12:26:48.611Z,100390.91
2023-02-16T12:29:38.916Z,100387.53
2023-02-16T12:32:38.191Z,100385.00
2023-02-16T12:35:15.319Z,100390.90
2023-02-16T12:38:14.880Z,100388.86
2023-02-16T12:41:05.153Z,100379.31
2023-02-16T12:43:47.345Z,100380.09
2023-02-16T12:46:29.322Z,100381.77
2023-02-16T12:48:59.685Z,100380.52
2023-02-16T12:52:07.143Z,100374.81
2023-02-16T12:54:47.625Z,100365.79
2023-02-16T12:57:20.863Z,100359.54
2023-02-16T12:59:49.269Z,100364.79
2023-02-16T13:02:24.144Z,100355.81
2023-02-16T13:05:10.280Z,100359.77
2023-02-16T13:07:43.218Z,100359.83
2023-02-16T13:10:24.820Z,100357.70
2023-02-16T13:13:14.660Z,100360.58
2023-02-16T13:15:47.766Z,100359.20
2023-02-16T13:18:19.787Z,100358.37
2023-02-16T13:21:19.288Z,100357.09
2023-02-16T13:23:59.753Z,100352.24
2023-02-16T13:26:33.722Z,100350.24
2023-02-16T13:29:29.162Z,100346.39
2023-02-16T13:32:32.220Z,100344.52
2023-02-16T13:35:30.272Z,100337.70
2023-02-16T13:38:02.878Z,100334.20
2023-02-16T13:40:40.811Z,100330.70
2023-02-16T13:43:26.927Z,100330.14
2023-02-16T13:45:55.341Z,100326.59
2023-02-16T13:48:27.652Z,100327.20
2023-02-16T13:51:04.633Z,100324.57
2023-02-16T13:53:38.033Z,100326.16
2023-02-16T13:56:24.877Z,100319.84
2023-02-16T13:58:53.601Z,100314.35
2023-02-16T14:01:28.389Z,100309.84
2023-02-16T14:03:56.968Z,100303.14
2023-02-16T14:06:37.941Z,100302.16
2023-02-16T14:09:12.257Z,100303.49
2023-02-16T14:11:57.500Z,100303.73
2023-02-16T14:14:43.292Z,100300.93
2023-02-16T14:17:23.652Z,100300.48
2023-02-16T14:20:13.547Z,100298.22
2023-02-16T14:22:59.847Z,100295.69
2023-02-16T14:25:29.062Z,100290.30
2023-02-16T14:28:35.534Z,100287.23
2023-02-16T14:31:12.081Z,100288.04
2023-02-16T14:33:54.793Z,100284.58
2023-02-16T14:36:26.366Z,100281.45
2023-02-16T14:38:58.431Z,100280.88
2023-02-16T14:41:28.043Z,100276.48
2023-02-16T14:44:05.053Z,100274.58
2023-02-16T14:46:51.600Z,100266.36
2023-02-16T14:49:58.251Z,100260.30
2023-02-16T14:52:47.155Z,100252.83
2023-02-16T14:55:53.748Z,100252.70
2023-02-16T14:58:25.776Z,100245.80
2023-02-16T15:00:57.409Z,100244.67
2023-02-16T15:03:26.644Z,100245.90
2023-02-16T15:05:58.388Z,100241.11
2023-02-16T15:08:34.922Z,100246.45
2023-02-16T15:11:14.482Z,100245.56
2023-02-16T15:13:43.571Z,100245.30
2023-02-16T15:16:15.953Z,100242.92
2023-02-16T15:18:48.042Z,100244.05
2023-02-16T15:21:30.849Z,100244.05
2023-02-16T15:24:00.369Z,100246.50
2023-02-16T15:26:31.199Z,100244.56
2023-02-16T15:29:27.205Z,100242.60
2023-02-16T15:31:56.065Z,100239.27
2023-02-16T15:34:35.128Z,100233.83
2023-02-16T15:37:22.462Z,100231.02
2023-02-16T15:40:08.745Z,100226.02
2023-02-16T15:42:39.928Z,100227.94
2023-02-16T15:45:33.138Z,100226.02
2023-02-16T15:48:21.243Z,100226.62
2023-02-16T15:50:55.209Z,100227.77
2023-02-16T15:53:33.709Z,100221.83
2023-02-16T15:56:05.540Z,100222.96
2023-02-16T15:58:34.178Z,100219.41
2023-02-16T16:01:03.923Z,100218.91
2023-02-16T16:03:32.728Z,100217.73
2023-02-16T16:06:06.320Z,100217.53
2023-02-16T16:08:35.396Z,100214.77
2023-02-16T16:11:03.770Z,100213.12
2023-02-16T16:13:32.428Z,100210.13
2023-02-16T16:16:04.988Z,100207.67
2023-02-16T16:18:39.666Z,100205.35
2023-02-16T16:21:29.204Z,100199.42
2023-02-16T16:24:05.470Z,100195.13
2023-02-16T16:26:36.188Z,100193.89
2023-02-16T16:29:04.730Z,100193.50
2023-02-16T16:31:34.374Z,100190.41
2023-02-16T16:34:09.968Z,100188.89
2023-02-16T16:36:56.432Z,100185.71
2023-02-16T16:39:28.228Z,100184.46
2023-02-16T16:42:22.063Z,100180.21
2023-02-16T16:45:03.032Z,100176.17
2023-02-16T16:47:35.167Z,100174.47
2023-02-16T16:50:18.484Z,100175.24
2023-02-16T16:52:49.784Z,100171.46
2023-02-16T16:55:19.063Z,100169.33
2023-02-16T16:57:48.027Z,100172.75
2023-02-16T17:00:17.139Z,100167.45
2023-02-16T17:02:46.697Z,100167.80
2023-02-16T17:05:15.004Z,100165.40
2023-02-16T17:07:49.254Z,100159.86
2023-02-16T17:10:19.334Z,100164.10
2023-02-16T17:12:48.966Z,100159.27
2023-02-16T17:15:42.629Z,100154.23
2023-02-16T17:18:16.491Z,100145.49
2023-02-16T17:20:45.180Z,100144.53
2023-02-16T17:23:15.217Z,100141.05
2023-02-16T17:25:43.986Z,100138.37
2023-02-16T17:28:14.146Z,100138.71
2023-02-16T17:30:43.062Z,100140.05
2023-02-16T17:33:11.372Z,100137.63
2023-02-16T17:35:41.535Z,100133.19
2023-02-16T17:38:17.147Z,100129.20
2023-02-16T17:40:48.289Z,100127.55
2023-02-16T17:43:17.397Z,100125.27
2023-02-16T17:45:45.600Z,100125.27
2023-02-16T17:48:25.199Z,100121.14
2023-02-16T17:50:54.236Z,100123.37
2023-02-16T17:53:24.160Z,100123.42
2023-02-16T17:55:54.125Z,100120.02
2023-02-16T17:58:23.353Z,100116.96
2023-02-16T18:00:51.926Z,100114.23
2023-02-16T18:03:25.232Z,100110.86
2023-02-16T18:05:54.014Z,100108.70
2023-02-16T18:08:22.496Z,100107.33
2023-02-16T18:10:53.574Z,100104.85
2023-02-16T18:13:21.988Z,100103.20
2023-02-16T18:15:55.720Z,100095.73
2023-02-16T18:18:24.686Z,100097.17
2023-02-16T18:20:52.580Z,100089.43
2023-02-16T18:23:21.542Z,100088.73
2023-02-16T18:25:50.209Z,100084.60
2023-02-16T18:28:20.064Z,100082.10
2023-02-16T18:30:49.676Z,100084.30
2023-02-16T18:33:18.773Z,100079.21
2023-02-16T18:35:48.464Z,100081.98
2023-02-16T18:38:20.063Z,100079.79
2023-02-16T18:40:51.551Z,100073.16
2023-02-16T18:43:21.482Z,100071.91
2023-02-16T18:45:49.892Z,100072.89
2023-02-16T18:48:18.092Z,100074.08
2023-02-16T18:50:46.321Z,100074.17
2023-02-16T18:53:14.691Z,100074.59
2023-02-16T18:55:43.200Z,100070.64
2023-02-16T18:58:11.552Z,100067.53
2023-02-16T19:00:40.546Z,100063.30
2023-02-16T19:03:08.835Z,100058.06
2023-02-16T19:05:37.895Z,100059.40
2023-02-16T19:08:06.655Z,100059.35
2023-02-16T19:10:34.696Z,100057.98
2023-02-16T19:13:03.280Z,100049.60
2023-02-16T19:15:36.524Z,100045.46
2023-02-16T19:18:04.976Z,100045.74
2023-02-16T19:20:33.171Z,100041.27
2023-02-16T19:23:02.068Z,100040.98
2023-02-16T19:25:30.675Z,100038.13
2023-02-16T19:28:01.615Z,100037.00
2023-02-16T19:30:30.782Z,100030.48
2023-02-16T19:32:59.183Z,100026.95
2023-02-16T19:35:28.239Z,100026.28
2023-02-16T19:37:56.363Z,100019.55
2023-02-16T19:40:26.099Z,100016.41
2023-02-16T19:42:57.520Z,100015.70
2023-02-16T19:45:25.529Z,100012.14
2023-02-16T19:47:53.931Z,100006.54
2023-02-16T19:50:22.014Z,100002.27
2023-02-16T19:52:50.513Z,99999.13
2023-02-16T19:55:19.175Z,99996.07
2023-02-16T19:57:47.699Z,99996.30
2023-02-16T20:00:16.072Z,99991.02
2023-02-16T20:02:44.876Z,99985.20
2023-02-16T20:05:13.641Z,99982.63
2023-02-16T20:07:44.020Z,99977.41
2023-02-16T20:10:12.340Z,99970.86
2023-02-16T20:12:41.339Z,99970.56
2023-02-16T20:15:09.635Z,99968.46
2023-02-16T20:17:40.126Z,99961.99
2023-02-16T20:20:08.720Z,99958.54
2023-02-16T20:22:37.131Z,99949.83
2023-02-16T20:25:05.968Z,99952.36
2023-02-16T20:27:34.154Z,99946.45
2023-02-16T20:30:06.496Z,99947.13
2023-02-16T20:32:35.023Z,99943.88
2023-02-16T20:35:07.757Z,99945.83
2023-02-16T20:37:35.801Z,99946.27
2023-02-16T20:40:04.049Z,99944.06
2023-02-16T20:42:36.845Z,99943.41
2023-02-16T20:45:05.563Z,99939.73
2023-02-16T20:47:34.039Z,99935.02
2023-02-16T20:50:02.203Z,99934.87
2023-02-16T20:52:30.503Z,99931.41
2023-02-16T20:55:06.097Z,99931.28
2023-02-16T20:57:35.311Z,99931.32
2023-02-16T21:00:06.650Z,99931.20
2023-02-16T21:02:34.984Z,99928.52
2023-02-16T21:05:05.175Z,99925.38
2023-02-16T21:07:33.461Z,99921.68
2023-02-16T21:10:03.562Z,99919.50
2023-02-16T21:12:31.718Z,99915.05
2023-02-16T21:14:59.710Z,99912.91
2023-02-16T21:17:29.596Z,99912.22
2023-02-16T21:19:57.793Z,99904.45
2023-02-16T21:22:26.068Z,99903.98
2023-02-16T21:24:54.337Z,99893.06
2023-02-16T21:27:23.285Z,99896.20
2023-02-16T21:29:51.280Z,99893.48
2023-02-16T21:32:19.614Z,99889.02
2023-02-16T21:34:47.864Z,99880.95
2023-02-16T21:37:16.037Z,99879.41
2023-02-16T21:40:03.074Z,99874.56
2023-02-16T21:42:34.135Z,99873.87
2023-02-16T21:45:14.375Z,99872.13
2023-02-16T21:48:03.100Z,99865.55
2023-02-16T21:50:34.793Z,99870.04
2023-02-16T21:53:04.793Z,99868.48
2023-02-16T21:55:51.966Z,99863.55
2023-02-16T21:58:19.933Z,99862.02
2023-02-16T22:00:51.203Z,99862.40
2023-02-16T22:03:20.798Z,99858.50
2023-02-16T22:05:49.223Z,99855.05
2023-02-16T22:08:18.068Z,99854.80
2023-02-16T22:10:49.610Z,99852.73
2023-02-16T22:13:18.294Z,99849.40
2023-02-16T22:15:46.287Z,99846.98
2023-02-16T22:18:14.828Z,99846.39
2023-02-16T22:29:04.996Z,99836.41
2023-02-16T22:31:33.742Z,99834.73
2023-02-16T22:34:05.265Z,99833.46
2023-02-16T22:36:34.072Z,99835.09
2023-02-16T22:39:02.217Z,99827.05
2023-02-16T22:41:30.348Z,99828.24
2023-02-16T22:44:01.640Z,99823.83
2023-02-16T22:46:29.803Z,99821.51
2023-02-16T22:48:59.464Z,99819.61
2023-02-16T22:51:29.662Z,99820.14
2023-02-16T22:53:58.348Z,99815.95
2023-02-16T22:56:28.371Z,99816.58
2023-02-16T22:58:57.788Z,99813.23
2023-02-16T23:01:27.776Z,99813.87
2023-02-16T23:03:59.975Z,99811.26
2023-02-16T23:06:30.841Z,99811.16
2023-02-16T23:09:00.870Z,99808.98
2023-02-16T23:11:30.079Z,99809.13
2023-02-16T23:13:58.249Z,99805.74
2023-02-16T23:16:26.439Z,99799.06
2023-02-16T23:18:55.734Z,99803.46
2023-02-16T23:21:30.094Z,99803.77
2023-02-16T23:23:59.260Z,99801.94
2023-02-16T23:26:30.632Z,99802.05
2023-02-16T23:29:01.220Z,99799.88
2023-02-16T23:31:33.554Z,99797.35
2023-02-16T23:34:02.807Z,99796.16
2023-02-16T23:36:34.758Z,99793.88
2023-02-16T23:39:10.467Z,99789.60
2023-02-16T23:41:38.701Z,99785.98
2023-02-16T23:44:07.065Z,99785.15
2023-02-16T23:46:35.124Z,99784.64
2023-02-16T23:49:03.612Z,99788.88
2023-02-16T23:51:31.680Z,99783.33
2023-02-16T23:53:59.913Z,99787.38
2023-02-16T23:56:28.335Z,99785.13
2023-02-16T23:58:58.644Z,99782.11
